createdAt,value
2023-04-20T00:00:01.939Z,1003.5
2023-04-20T00:01:03.110Z,1003.5
2023-04-20T00:02:04.563Z,1003.5
2023-04-20T00:03:06.347Z,1003.5
2023-04-20T00:04:07.550Z,1003.5
2023-04-20T00:05:08.959Z,1003.5
2023-04-20T00:06:10.328Z,1003.5
2023-04-20T00:07:11.500Z,1003.5
2023-04-20T00:08:12.663Z,1003.6
2023-04-20T00:09:13.635Z,1003.5
2023-04-20T00:10:14.791Z,1003.5
2023-04-20T00:11:15.791Z,1003.6
2023-04-20T00:12:16.930Z,1003.5
2023-04-20T00:13:18.096Z,1003.5
2023-04-20T00:14:19.288Z,1003.5
2023-04-20T00:15:20.427Z,1003.5
2023-04-20T00:16:21.652Z,1003.5
2023-04-20T00:17:22.879Z,1003.5
2023-04-20T00:18:24.028Z,1003.5
2023-04-20T00:19:25.200Z,1003.5
2023-04-20T00:20:26.360Z,1003.6
2023-04-20T00:21:27.524Z,1003.5
2023-04-20T00:22:28.694Z,1003.5
2023-04-20T00:23:29.875Z,1003.5
2023-04-20T00:24:31.025Z,1003.5
2023-04-20T00:25:32.192Z,1003.5
2023-04-20T00:26:33.354Z,1003.5
2023-04-20T00:27:34.517Z,1003.4
2023-04-20T00:28:35.682Z,1003.4
2023-04-20T00:29:37.142Z,1003.4
2023-04-20T00:30:38.300Z,1003.4
2023-04-20T00:31:39.588Z,1003.4
2023-04-20T00:32:40.486Z,1003.4
2023-04-20T00:33:41.707Z,1003.4
2023-04-20T00:34:42.878Z,1003.4
2023-04-20T00:35:44.054Z,1003.4
2023-04-20T00:36:45.344Z,1003.4
2023-04-20T00:37:46.344Z,1003.4
2023-04-20T00:38:47.480Z,1003.4
2023-04-20T00:39:48.646Z,1003.4
2023-04-20T00:40:49.815Z,1003.4
2023-04-20T00:41:50.985Z,1003.4
2023-04-20T00:42:52.157Z,1003.4
2023-04-20T00:43:53.320Z,1003.4
2023-04-20T00:44:54.548Z,1003.4
2023-04-20T00:45:55.727Z,1003.4
2023-04-20T00:46:56.872Z,1003.4
2023-04-20T00:47:58.126Z,1003.4
2023-04-20T00:48:59.365Z,1003.4
2023-04-20T00:50:00.532Z,1003.4
2023-04-20T00:51:01.699Z,1003.4
2023-04-20T00:52:02.868Z,1003.3
2023-04-20T00:53:04.024Z,1003.3
2023-04-20T00:54:05.002Z,1003.3
2023-04-20T00:55:06.178Z,1003.3
2023-04-20T00:56:07.136Z,1003.3
2023-04-20T00:57:08.300Z,1003.3
2023-04-20T00:58:09.269Z,1003.3
2023-04-20T00:59:10.464Z,1003.2
2023-04-20T01:00:11.754Z,1003.2
2023-04-20T01:01:12.901Z,1003.2
2023-04-20T01:02:14.146Z,1003.2
2023-04-20T01:03:15.649Z,1003.2
2023-04-20T01:04:17.512Z,1003.2
2023-04-20T01:05:19.048Z,1003.2
2023-04-20T01:06:20.205Z,1003.2
2023-04-20T01:07:21.366Z,1003.2
2023-04-20T01:08:22.330Z,1003.1
2023-04-20T01:09:23.500Z,1003.1
2023-04-20T01:10:24.668Z,1003.1
2023-04-20T01:11:25.835Z,1003.1
2023-04-20T01:12:27.004Z,1003.1
2023-04-20T01:13:28.164Z,1003.1
2023-04-20T01:14:29.333Z,1003.1
2023-04-20T01:15:30.589Z,1003.1
2023-04-20T01:16:31.782Z,1003.1
2023-04-20T01:17:33.254Z,1003.1
2023-04-20T01:18:34.172Z,1003
2023-04-20T01:19:35.340Z,1003
2023-04-20T01:20:36.502Z,1003
2023-04-20T01:21:37.669Z,1003
2023-04-20T01:22:38.636Z,1002.9
2023-04-20T01:23:39.804Z,1002.9
2023-04-20T01:24:40.987Z,1002.9
2023-04-20T01:25:41.956Z,1002.9
2023-04-20T01:26:43.108Z,1002.9
2023-04-20T01:27:44.278Z,1002.8
2023-04-20T01:28:45.301Z,1002.8
2023-04-20T01:29:46.473Z,1002.8
2023-04-20T01:30:47.708Z,1002.8
2023-04-20T01:31:48.947Z,1002.9
2023-04-20T01:32:50.273Z,1002.9
2023-04-20T01:33:51.490Z,1002.9
2023-04-20T01:34:52.651Z,1002.9
2023-04-20T01:35:53.814Z,1002.9
2023-04-20T01:36:54.832Z,1002.9
2023-04-20T01:37:56.010Z,1002.9
2023-04-20T01:38:57.162Z,1002.9
2023-04-20T01:39:58.516Z,1002.8
2023-04-20T01:40:59.623Z,1002.8
2023-04-20T01:42:00.790Z,1002.8
2023-04-20T01:43:01.959Z,1002.8
2023-04-20T01:44:03.129Z,1002.8
2023-04-20T01:45:04.101Z,1002.8
2023-04-20T01:46:05.432Z,1002.8
2023-04-20T01:47:06.518Z,1002.9
2023-04-20T01:48:07.902Z,1002.9
2023-04-20T01:49:09.313Z,1002.9
2023-04-20T01:50:10.492Z,1002.9
2023-04-20T01:51:11.647Z,1002.8
2023-04-20T01:52:12.825Z,1002.8
2023-04-20T01:53:14.051Z,1002.8
2023-04-20T01:54:15.211Z,1002.9
2023-04-20T01:55:17.880Z,1002.9
2023-04-20T01:56:21.038Z,1002.9
2023-04-20T01:57:22.205Z,1002.9
2023-04-20T01:58:23.375Z,1002.9
2023-04-20T01:59:24.341Z,1002.9
2023-04-20T02:00:25.314Z,1002.9
2023-04-20T02:01:26.686Z,1002.8
2023-04-20T02:02:28.532Z,1002.8
2023-04-20T02:03:30.391Z,1002.8
2023-04-20T02:04:31.952Z,1002.8
2023-04-20T02:05:33.116Z,1002.8
2023-04-20T02:06:34.287Z,1002.8
2023-04-20T02:07:35.256Z,1002.8
2023-04-20T02:08:36.420Z,1002.8
2023-04-20T02:09:37.596Z,1002.8
2023-04-20T02:10:38.751Z,1002.8
2023-04-20T02:11:39.921Z,1002.8
2023-04-20T02:12:41.083Z,1002.8
2023-04-20T02:13:42.254Z,1002.8
2023-04-20T02:14:43.420Z,1002.8
2023-04-20T02:15:44.587Z,1002.7
2023-04-20T02:16:46.093Z,1002.7
2023-04-20T02:17:47.451Z,1002.7
2023-04-20T02:18:48.592Z,1002.7
2023-04-20T02:19:49.762Z,1002.7
2023-04-20T02:20:50.933Z,1002.8
2023-04-20T02:21:52.086Z,1002.8
2023-04-20T02:22:53.252Z,1002.7
2023-04-20T02:23:54.416Z,1002.7
2023-04-20T02:24:55.585Z,1002.7
2023-04-20T02:25:56.752Z,1002.7
2023-04-20T02:26:57.933Z,1002.7
2023-04-20T02:27:59.079Z,1002.7
2023-04-20T02:29:00.246Z,1002.7
2023-04-20T02:30:01.409Z,1002.7
2023-04-20T02:31:02.588Z,1002.7
2023-04-20T02:32:03.784Z,1002.7
2023-04-20T02:33:05.060Z,1002.7
2023-04-20T02:34:06.356Z,1002.7
2023-04-20T02:35:07.553Z,1002.7
2023-04-20T02:36:08.717Z,1002.7
2023-04-20T02:37:09.883Z,1002.7
2023-04-20T02:38:11.047Z,1002.7
2023-04-20T02:39:12.214Z,1002.7
2023-04-20T02:40:13.382Z,1002.7
2023-04-20T02:41:14.544Z,1002.7
2023-04-20T02:42:15.723Z,1002.8
2023-04-20T02:43:16.877Z,1002.8
2023-04-20T02:44:18.045Z,1002.7
2023-04-20T02:45:19.208Z,1002.7
2023-04-20T02:46:20.406Z,1002.7
2023-04-20T02:47:21.990Z,1002.7
2023-04-20T02:48:23.266Z,1002.7
2023-04-20T02:49:24.417Z,1002.7
2023-04-20T02:50:25.578Z,1002.7
2023-04-20T02:51:26.749Z,1002.7
2023-04-20T02:52:27.915Z,1002.7
2023-04-20T02:53:29.082Z,1002.7
2023-04-20T02:54:30.248Z,1002.7
2023-04-20T02:55:31.423Z,1002.8
2023-04-20T02:56:32.574Z,1002.7
2023-04-20T02:57:33.742Z,1002.7
2023-04-20T02:58:34.918Z,1002.7
2023-04-20T02:59:36.085Z,1002.7
2023-04-20T03:00:37.254Z,1002.7
2023-04-20T03:01:38.520Z,1002.7
2023-04-20T03:02:40.174Z,1002.7
2023-04-20T03:03:41.734Z,1002.7
2023-04-20T03:04:43.639Z,1002.7
2023-04-20T03:05:44.977Z,1002.7
2023-04-20T03:06:46.146Z,1002.7
2023-04-20T03:07:47.326Z,1002.8
2023-04-20T03:08:48.475Z,1002.7
2023-04-20T03:09:49.638Z,1002.8
2023-04-20T03:10:50.956Z,1002.7
2023-04-20T03:11:52.132Z,1002.7
2023-04-20T03:12:53.285Z,1002.8
2023-04-20T03:13:54.449Z,1002.8
2023-04-20T03:14:55.617Z,1002.7
2023-04-20T03:15:56.806Z,1002.8
2023-04-20T03:16:58.161Z,1002.8
2023-04-20T03:17:59.565Z,1002.8
2023-04-20T03:19:00.840Z,1002.8
2023-04-20T03:20:02.021Z,1002.7
2023-04-20T03:21:03.172Z,1002.8
2023-04-20T03:22:04.375Z,1002.8
2023-04-20T03:23:05.513Z,1002.8
2023-04-20T03:24:06.674Z,1002.8
2023-04-20T03:25:07.836Z,1002.8
2023-04-20T03:26:09.007Z,1002.8
2023-04-20T03:27:10.173Z,1002.8
2023-04-20T03:28:11.333Z,1002.8
2023-04-20T03:29:12.504Z,1002.8
2023-04-20T03:30:13.670Z,1002.8
2023-04-20T03:31:14.980Z,1002.8
2023-04-20T03:32:16.117Z,1002.8
2023-04-20T03:33:17.313Z,1002.8
2023-04-20T03:34:18.452Z,1002.8
2023-04-20T03:35:19.620Z,1002.8
2023-04-20T03:36:20.799Z,1002.8
2023-04-20T03:37:21.953Z,1002.8
2023-04-20T03:38:23.115Z,1002.8
2023-04-20T03:39:24.279Z,1002.8
2023-04-20T03:40:25.470Z,1002.8
2023-04-20T03:41:26.624Z,1002.8
2023-04-20T03:42:27.788Z,1002.8
2023-04-20T03:43:28.955Z,1002.7
2023-04-20T03:44:30.131Z,1002.7
2023-04-20T03:45:31.312Z,1002.7
2023-04-20T03:46:32.467Z,1002.7
2023-04-20T03:47:33.809Z,1002.7
2023-04-20T03:48:35.178Z,1002.7
2023-04-20T03:49:36.310Z,1002.8
2023-04-20T03:50:37.482Z,1002.8
2023-04-20T03:51:38.652Z,1002.8
2023-04-20T03:52:39.811Z,1002.8
2023-04-20T03:53:40.980Z,1002.8
2023-04-20T03:54:42.141Z,1002.8
2023-04-20T03:55:43.326Z,1002.8
2023-04-20T03:56:44.476Z,1002.8
2023-04-20T03:57:45.648Z,1002.8
2023-04-20T03:58:46.882Z,1002.8
2023-04-20T03:59:48.049Z,1002.8
2023-04-20T04:00:49.221Z,1002.9
2023-04-20T04:01:50.383Z,1002.9
2023-04-20T04:02:51.553Z,1002.9
2023-04-20T04:03:53.423Z,1002.8
2023-04-20T04:04:55.400Z,1002.9
2023-04-20T04:05:57.078Z,1002.8
2023-04-20T04:06:58.254Z,1002.8
2023-04-20T04:07:59.417Z,1002.8
2023-04-20T04:09:00.573Z,1002.8
2023-04-20T04:10:01.745Z,1002.8
2023-04-20T04:11:02.915Z,1002.9
2023-04-20T04:12:04.070Z,1002.8
2023-04-20T04:13:05.239Z,1002.9
2023-04-20T04:14:06.409Z,1002.8
2023-04-20T04:15:07.572Z,1002.8
2023-04-20T04:16:08.739Z,1002.8
2023-04-20T04:17:10.218Z,1002.8
2023-04-20T04:18:11.468Z,1002.8
2023-04-20T04:19:12.667Z,1002.8
2023-04-20T04:20:14.160Z,1002.8
2023-04-20T04:21:16.225Z,1002.8
2023-04-20T04:22:17.391Z,1002.8
2023-04-20T04:23:18.562Z,1002.8
2023-04-20T04:24:19.723Z,1002.8
2023-04-20T04:25:20.887Z,1002.8
2023-04-20T04:26:22.057Z,1002.8
2023-04-20T04:27:23.224Z,1002.8
2023-04-20T04:28:24.387Z,1002.8
2023-04-20T04:29:25.557Z,1002.8
2023-04-20T04:30:26.720Z,1002.8
2023-04-20T04:31:28.072Z,1002.8
2023-04-20T04:32:29.260Z,1002.8
2023-04-20T04:33:30.417Z,1002.8
2023-04-20T04:34:31.606Z,1002.8
2023-04-20T04:35:32.757Z,1002.8
2023-04-20T04:36:34.049Z,1002.8
2023-04-20T04:37:35.217Z,1002.9
2023-04-20T04:38:36.385Z,1002.9
2023-04-20T04:39:37.670Z,1002.9
2023-04-20T04:40:38.840Z,1002.9
2023-04-20T04:41:40.001Z,1002.9
2023-04-20T04:42:41.175Z,1002.9
2023-04-20T04:43:42.347Z,1002.8
2023-04-20T04:44:43.513Z,1002.9
2023-04-20T04:45:44.669Z,1002.9
2023-04-20T04:46:46.025Z,1002.9
2023-04-20T04:47:47.554Z,1002.9
2023-04-20T04:48:48.697Z,1002.9
2023-04-20T04:49:49.887Z,1002.9
2023-04-20T04:50:51.033Z,1002.9
2023-04-20T04:51:52.199Z,1002.9
2023-04-20T04:52:53.366Z,1002.9
2023-04-20T04:53:54.527Z,1002.9
2023-04-20T04:54:55.700Z,1002.9
2023-04-20T04:55:56.864Z,1002.9
2023-04-20T04:56:58.031Z,1002.9
2023-04-20T04:57:59.197Z,1002.9
2023-04-20T04:59:00.358Z,1002.9
2023-04-20T05:00:01.529Z,1002.9
2023-04-20T05:01:02.699Z,1002.9
2023-04-20T05:02:11.547Z,1003
2023-04-20T05:03:13.191Z,1003
2023-04-20T05:04:14.932Z,1003
2023-04-20T05:05:16.459Z,1003
2023-04-20T05:06:17.409Z,1003
2023-04-20T05:07:18.576Z,1003
2023-04-20T05:08:19.738Z,1003
2023-04-20T05:09:21.266Z,1003
2023-04-20T05:10:22.115Z,1003
2023-04-20T05:11:23.077Z,1003
2023-04-20T05:12:24.251Z,1003.1
2023-04-20T05:13:25.407Z,1003.1
2023-04-20T05:14:26.579Z,1003.1
2023-04-20T05:15:27.748Z,1003.1
2023-04-20T05:16:29.029Z,1003.1
2023-04-20T05:17:30.356Z,1003.1
2023-04-20T05:18:31.505Z,1003.1
2023-04-20T05:19:32.673Z,1003.1
2023-04-20T05:20:33.915Z,1003.1
2023-04-20T05:21:34.855Z,1003.2
2023-04-20T05:22:36.020Z,1003.2
2023-04-20T05:23:37.184Z,1003.2
2023-04-20T05:24:38.350Z,1003.2
2023-04-20T05:25:39.527Z,1003.2
2023-04-20T05:26:40.689Z,1003.2
2023-04-20T05:27:41.847Z,1003.2
2023-04-20T05:28:43.022Z,1003.2
2023-04-20T05:29:44.179Z,1003.2
2023-04-20T05:30:45.346Z,1003.2
2023-04-20T05:31:46.608Z,1003.3
2023-04-20T05:32:52.418Z,1003.3
2023-04-20T05:33:53.806Z,1003.3
2023-04-20T05:34:54.972Z,1003.3
2023-04-20T05:35:56.307Z,1003.3
2023-04-20T05:36:57.431Z,1003.3
2023-04-20T05:37:58.603Z,1003.3
2023-04-20T05:38:59.763Z,1003.3
2023-04-20T05:40:00.933Z,1003.3
2023-04-20T05:41:02.098Z,1003.4
2023-04-20T05:42:03.267Z,1003.4
2023-04-20T05:43:04.439Z,1003.4
2023-04-20T05:44:05.447Z,1003.4
2023-04-20T05:45:06.622Z,1003.4
2023-04-20T05:46:07.968Z,1003.5
2023-04-20T05:47:08.931Z,1003.5
2023-04-20T05:48:10.092Z,1003.5
2023-04-20T05:49:11.060Z,1003.5
2023-04-20T05:50:12.230Z,1003.5
2023-04-20T05:51:13.470Z,1003.5
2023-04-20T05:52:14.486Z,1003.5
2023-04-20T05:53:15.654Z,1003.5
2023-04-20T05:54:16.823Z,1003.6
2023-04-20T05:55:22.183Z,1003.6
2023-04-20T05:56:24.076Z,1003.6
2023-04-20T05:57:25.119Z,1003.6
2023-04-20T05:58:26.272Z,1003.6
2023-04-20T05:59:27.431Z,1003.6
2023-04-20T06:00:28.599Z,1003.6
2023-04-20T06:01:29.842Z,1003.6
2023-04-20T06:02:31.217Z,1003.6
2023-04-20T06:03:33.041Z,1003.6
2023-04-20T06:04:34.855Z,1003.6
2023-04-20T06:05:36.849Z,1003.6
2023-04-20T06:06:38.393Z,1003.6
2023-04-20T06:07:39.544Z,1003.6
2023-04-20T06:08:40.700Z,1003.6
2023-04-20T06:09:41.861Z,1003.6
2023-04-20T06:10:43.042Z,1003.6
2023-04-20T06:11:44.195Z,1003.6
2023-04-20T06:12:45.371Z,1003.6
2023-04-20T06:13:46.532Z,1003.6
2023-04-20T06:14:47.559Z,1003.6
2023-04-20T06:15:48.758Z,1003.6
2023-04-20T06:16:49.913Z,1003.6
2023-04-20T06:17:51.189Z,1003.5
2023-04-20T06:18:52.354Z,1003.5
2023-04-20T06:19:53.324Z,1003.5
2023-04-20T06:20:54.291Z,1003.5
2023-04-20T06:21:55.623Z,1003.5
2023-04-20T06:22:56.789Z,1003.6
2023-04-20T06:23:57.956Z,1003.6
2023-04-20T06:24:59.120Z,1003.6
2023-04-20T06:26:00.280Z,1003.6
2023-04-20T06:27:01.453Z,1003.6
2023-04-20T06:28:02.620Z,1003.6
2023-04-20T06:29:03.784Z,1003.6
2023-04-20T06:30:04.950Z,1003.6
2023-04-20T06:31:06.153Z,1003.7
2023-04-20T06:32:07.421Z,1003.6
2023-04-20T06:33:12.549Z,1003.6
2023-04-20T06:34:13.859Z,1003.6
2023-04-20T06:35:15.038Z,1003.7
2023-04-20T06:36:16.001Z,1003.7
2023-04-20T06:37:17.219Z,1003.7
2023-04-20T06:38:18.393Z,1003.6
2023-04-20T06:39:19.915Z,1003.7
2023-04-20T06:40:21.093Z,1003.7
2023-04-20T06:41:22.266Z,1003.7
2023-04-20T06:42:23.430Z,1003.8
2023-04-20T06:43:24.598Z,1003.8
2023-04-20T06:44:25.758Z,1003.8
2023-04-20T06:45:26.934Z,1003.8
2023-04-20T06:46:28.173Z,1003.8
2023-04-20T06:47:29.350Z,1003.8
2023-04-20T06:48:33.268Z,1003.8
2023-04-20T06:49:34.544Z,1003.8
2023-04-20T06:50:35.714Z,1003.8
2023-04-20T06:51:36.746Z,1003.8
2023-04-20T06:52:38.106Z,1003.8
2023-04-20T06:53:39.244Z,1003.8
2023-04-20T06:54:40.409Z,1003.8
2023-04-20T06:55:41.488Z,1003.9
2023-04-20T06:56:42.457Z,1003.9
2023-04-20T06:57:43.632Z,1003.9
2023-04-20T06:58:44.889Z,1003.9
2023-04-20T06:59:46.055Z,1003.9
2023-04-20T07:00:47.247Z,1003.9
2023-04-20T07:01:48.347Z,1003.9
2023-04-20T07:02:49.903Z,1003.9
2023-04-20T07:03:52.128Z,1003.9
2023-04-20T07:04:54.356Z,1004
2023-04-20T07:05:55.657Z,1004
2023-04-20T07:06:56.829Z,1004
2023-04-20T07:07:58.231Z,1004
2023-04-20T07:08:59.357Z,1004
2023-04-20T07:10:00.622Z,1003.9
2023-04-20T07:11:01.793Z,1004
2023-04-20T07:12:02.803Z,1003.9
2023-04-20T07:13:03.964Z,1004
2023-04-20T07:14:04.784Z,1003.9
2023-04-20T07:15:05.604Z,1004
2023-04-20T07:16:06.825Z,1003.9
2023-04-20T07:17:07.987Z,1003.9
2023-04-20T07:18:09.186Z,1003.9
2023-04-20T07:19:10.434Z,1003.9
2023-04-20T07:20:11.753Z,1004
2023-04-20T07:21:12.939Z,1004
2023-04-20T07:22:14.110Z,1004
2023-04-20T07:23:15.637Z,1004
2023-04-20T07:24:16.765Z,1004
2023-04-20T07:25:17.943Z,1004
2023-04-20T07:26:19.106Z,1004
2023-04-20T07:27:20.268Z,1004
2023-04-20T07:28:21.441Z,1004
2023-04-20T07:29:22.608Z,1004
2023-04-20T07:30:23.764Z,1004
2023-04-20T07:31:25.175Z,1004
2023-04-20T07:32:26.423Z,1004
2023-04-20T07:33:27.717Z,1004
2023-04-20T07:34:28.887Z,1004
2023-04-20T07:35:30.052Z,1004.1
2023-04-20T07:36:31.217Z,1004
2023-04-20T07:37:32.186Z,1004
2023-04-20T07:38:33.461Z,1004
2023-04-20T07:39:34.697Z,1004
2023-04-20T07:40:35.866Z,1004.1
2023-04-20T07:41:37.029Z,1004.1
2023-04-20T07:42:38.222Z,1004.1
2023-04-20T07:43:39.182Z,1004.1
2023-04-20T07:44:40.361Z,1004.1
2023-04-20T07:45:41.782Z,1004.1
2023-04-20T07:46:43.067Z,1004.1
2023-04-20T07:47:44.053Z,1004.1
2023-04-20T07:48:45.247Z,1004.1
2023-04-20T07:49:46.416Z,1004
2023-04-20T07:50:47.587Z,1004
2023-04-20T07:51:48.744Z,1004
2023-04-20T07:52:49.817Z,1004
2023-04-20T07:53:51.045Z,1004
2023-04-20T07:54:51.980Z,1004
2023-04-20T07:55:53.148Z,1004.1
2023-04-20T07:56:54.314Z,1004
2023-04-20T07:57:55.484Z,1004.1
2023-04-20T07:58:56.650Z,1004.1
2023-04-20T07:59:57.815Z,1004.1
2023-04-20T08:00:58.986Z,1004
2023-04-20T08:02:00.643Z,1004.1
2023-04-20T08:03:02.283Z,1004.1
2023-04-20T08:04:04.184Z,1004.1
2023-04-20T08:05:06.606Z,1004.1
2023-04-20T08:06:08.203Z,1004.1
2023-04-20T08:07:09.366Z,1004.1
2023-04-20T08:08:10.339Z,1004.1
2023-04-20T08:09:13.887Z,1004.1
2023-04-20T08:10:15.048Z,1004.1
2023-04-20T08:11:16.212Z,1004.1
2023-04-20T08:12:17.389Z,1004.1
2023-04-20T08:13:18.620Z,1004.1
2023-04-20T08:14:21.159Z,1004.1
2023-04-20T08:15:22.578Z,1004.2
2023-04-20T08:16:24.393Z,1004.2
2023-04-20T08:17:25.667Z,1004.1
2023-04-20T08:18:26.846Z,1004.2
2023-04-20T08:19:28.304Z,1004.1
2023-04-20T08:20:29.452Z,1004.1
2023-04-20T08:21:30.617Z,1004.1
2023-04-20T08:22:31.598Z,1004.1
2023-04-20T08:23:32.894Z,1004.1
2023-04-20T08:24:34.671Z,1004.1
2023-04-20T08:25:35.944Z,1004.1
2023-04-20T08:26:36.922Z,1004.1
2023-04-20T08:27:37.975Z,1004.1
2023-04-20T08:28:39.146Z,1004.1
2023-04-20T08:29:40.133Z,1004.1
2023-04-20T08:30:41.291Z,1004
2023-04-20T08:31:43.154Z,1004.1
2023-04-20T08:32:44.650Z,1004.1
2023-04-20T08:33:46.037Z,1004.1
2023-04-20T08:34:48.127Z,1004.1
2023-04-20T08:35:49.293Z,1004.1
2023-04-20T08:36:50.464Z,1004.1
2023-04-20T08:37:51.629Z,1004.1
2023-04-20T08:38:52.446Z,1004
2023-04-20T08:39:54.317Z,1004.1
2023-04-20T08:40:55.350Z,1004.1
2023-04-20T08:41:56.368Z,1004.1
2023-04-20T08:42:57.529Z,1004.1
2023-04-20T08:43:58.703Z,1004
2023-04-20T08:44:59.893Z,1004
2023-04-20T08:46:01.314Z,1004.1
2023-04-20T08:47:02.973Z,1004.1
2023-04-20T08:48:04.254Z,1004.1
2023-04-20T08:49:05.640Z,1004.1
2023-04-20T08:50:06.807Z,1004
2023-04-20T08:51:07.981Z,1004.1
2023-04-20T08:52:09.134Z,1004
2023-04-20T08:53:10.302Z,1004
2023-04-20T08:54:11.466Z,1004
2023-04-20T08:55:12.973Z,1004
2023-04-20T08:56:14.148Z,1004
2023-04-20T08:57:15.160Z,1004
2023-04-20T08:58:16.324Z,1004.1
2023-04-20T08:59:17.490Z,1004.1
2023-04-20T09:00:18.534Z,1004.1
2023-04-20T09:01:35.444Z,1004.1
2023-04-20T09:02:37.526Z,1004.1
2023-04-20T09:03:39.223Z,1004.1
2023-04-20T09:04:40.842Z,1004.1
2023-04-20T09:05:42.408Z,1004.1
2023-04-20T09:06:43.579Z,1004.1
2023-04-20T09:07:44.585Z,1004.1
2023-04-20T09:08:45.753Z,1004.1
2023-04-20T09:09:46.769Z,1004.1
2023-04-20T09:10:48.139Z,1004.1
2023-04-20T09:11:49.269Z,1004.1
2023-04-20T09:12:50.428Z,1004.1
2023-04-20T09:13:51.596Z,1004.1
2023-04-20T09:14:52.759Z,1004.2
2023-04-20T09:15:53.788Z,1004.2
2023-04-20T09:16:54.989Z,1004.2
2023-04-20T09:17:56.133Z,1004.2
2023-04-20T09:18:57.313Z,1004.2
2023-04-20T09:19:58.472Z,1004.2
2023-04-20T09:21:00.162Z,1004.3
2023-04-20T09:22:01.126Z,1004.3
2023-04-20T09:23:02.287Z,1004.3
2023-04-20T09:24:03.275Z,1004.2
2023-04-20T09:25:04.446Z,1004.2
2023-04-20T09:26:05.813Z,1004.2
2023-04-20T09:27:06.797Z,1004.3
2023-04-20T09:28:07.969Z,1004.3
2023-04-20T09:29:09.129Z,1004.3
2023-04-20T09:30:10.292Z,1004.3
2023-04-20T09:31:12.098Z,1004.3
2023-04-20T09:32:15.848Z,1004.3
2023-04-20T09:33:17.087Z,1004.3
2023-04-20T09:34:18.672Z,1004.3
2023-04-20T09:35:19.953Z,1004.3
2023-04-20T09:36:21.117Z,1004.3
2023-04-20T09:37:22.281Z,1004.3
2023-04-20T09:38:23.292Z,1004.2
2023-04-20T09:39:24.316Z,1004.3
2023-04-20T09:40:25.286Z,1004.2
2023-04-20T09:41:26.688Z,1004.2
2023-04-20T09:42:27.884Z,1004.2
2023-04-20T09:43:29.058Z,1004.2
2023-04-20T09:44:30.083Z,1004.1
2023-04-20T09:45:31.100Z,1004.2
2023-04-20T09:46:32.274Z,1004.2
2023-04-20T09:47:33.487Z,1004.2
2023-04-20T09:48:34.620Z,1004.1
2023-04-20T09:49:35.791Z,1004.2
2023-04-20T09:50:50.854Z,1004.2
2023-04-20T09:51:52.869Z,1004.3
2023-04-20T09:52:54.045Z,1004.3
2023-04-20T09:53:55.208Z,1004.3
2023-04-20T09:54:56.379Z,1004.3
2023-04-20T09:55:57.195Z,1004.2
2023-04-20T09:56:58.521Z,1004.3
2023-04-20T09:57:59.494Z,1004.2
2023-04-20T09:59:00.662Z,1004.2
2023-04-20T10:00:01.829Z,1004.2
2023-04-20T10:01:03.044Z,1004.3
2023-04-20T10:02:04.285Z,1004.3
2023-04-20T10:03:05.718Z,1004.3
2023-04-20T10:04:07.849Z,1004.3
2023-04-20T10:05:09.756Z,1004.3
2023-04-20T10:06:10.727Z,1004.3
2023-04-20T10:07:11.898Z,1004.3
2023-04-20T10:08:13.075Z,1004.3
2023-04-20T10:09:14.292Z,1004.3
2023-04-20T10:10:15.469Z,1004.3
2023-04-20T10:11:16.429Z,1004.3
2023-04-20T10:12:17.625Z,1004.3
2023-04-20T10:13:18.617Z,1004.2
2023-04-20T10:14:20.456Z,1004.2
2023-04-20T10:15:22.323Z,1004.3
2023-04-20T10:16:23.525Z,1004.3
2023-04-20T10:17:25.191Z,1004.3
2023-04-20T10:18:26.743Z,1004.3
2023-04-20T10:19:28.296Z,1004.3
2023-04-20T10:20:29.263Z,1004.3
2023-04-20T10:21:30.434Z,1004.3
2023-04-20T10:22:31.601Z,1004.2
2023-04-20T10:23:32.771Z,1004.3
2023-04-20T10:24:33.950Z,1004.3
2023-04-20T10:25:35.122Z,1004.3
2023-04-20T10:26:36.284Z,1004.3
2023-04-20T10:27:37.507Z,1004.3
2023-04-20T10:28:38.438Z,1004.3
2023-04-20T10:29:39.608Z,1004.2
2023-04-20T10:30:40.787Z,1004.3
2023-04-20T10:31:42.164Z,1004.3
2023-04-20T10:32:43.385Z,1004.3
2023-04-20T10:33:44.642Z,1004.3
2023-04-20T10:34:45.822Z,1004.3
2023-04-20T10:35:46.780Z,1004.3
2023-04-20T10:36:47.943Z,1004.3
2023-04-20T10:37:49.153Z,1004.3
2023-04-20T10:38:50.316Z,1004.3
2023-04-20T10:39:51.494Z,1004.2
2023-04-20T10:40:52.663Z,1004.2
2023-04-20T10:41:53.832Z,1004.3
2023-04-20T10:42:55.397Z,1004.2
2023-04-20T10:43:56.392Z,1004.2
2023-04-20T10:44:57.568Z,1004.3
2023-04-20T10:45:58.537Z,1004.2
2023-04-20T10:46:59.701Z,1004.3
2023-04-20T10:48:00.878Z,1004.2
2023-04-20T10:49:02.079Z,1004.2
2023-04-20T10:50:03.248Z,1004.2
2023-04-20T10:51:04.415Z,1004.2
2023-04-20T10:52:05.578Z,1004.2
2023-04-20T10:53:06.753Z,1004.2
2023-04-20T10:54:08.431Z,1004.1
2023-04-20T10:55:09.768Z,1004.1
2023-04-20T10:56:10.542Z,1004.1
2023-04-20T10:57:11.709Z,1004.1
2023-04-20T10:58:13.041Z,1004.1
2023-04-20T10:59:13.784Z,1004.1
2023-04-20T11:00:14.950Z,1004.1
2023-04-20T11:01:16.151Z,1004.1
2023-04-20T11:02:17.572Z,1004
2023-04-20T11:03:18.991Z,1004
2023-04-20T11:04:20.205Z,1004
2023-04-20T11:05:21.441Z,1004
2023-04-20T11:06:22.607Z,1004
2023-04-20T11:07:23.576Z,1004
2023-04-20T11:08:24.550Z,1004
2023-04-20T11:09:25.525Z,1004
2023-04-20T11:10:26.693Z,1004
2023-04-20T11:11:27.864Z,1004
2023-04-20T11:12:29.027Z,1004
2023-04-20T11:13:30.354Z,1004
2023-04-20T11:14:31.503Z,1003.9
2023-04-20T11:15:32.462Z,1003.9
2023-04-20T11:16:51.805Z,1003.9
2023-04-20T11:17:53.620Z,1003.8
2023-04-20T11:18:54.889Z,1003.8
2023-04-20T11:19:56.054Z,1003.8
2023-04-20T11:20:57.222Z,1003.8
2023-04-20T11:21:58.390Z,1003.8
2023-04-20T11:22:59.557Z,1003.8
2023-04-20T11:24:00.580Z,1003.8
2023-04-20T11:25:01.644Z,1003.8
2023-04-20T11:26:02.780Z,1003.8
2023-04-20T11:27:03.955Z,1003.8
2023-04-20T11:28:05.120Z,1003.7
2023-04-20T11:29:06.389Z,1003.8
2023-04-20T11:30:07.527Z,1003.8
2023-04-20T11:31:08.871Z,1003.8
2023-04-20T11:32:10.244Z,1003.8
2023-04-20T11:33:11.573Z,1003.8
2023-04-20T11:34:13.051Z,1003.8
2023-04-20T11:35:14.225Z,1003.8
2023-04-20T11:36:15.392Z,1003.8
2023-04-20T11:37:16.549Z,1003.8
2023-04-20T11:38:17.569Z,1003.8
2023-04-20T11:39:19.055Z,1003.8
2023-04-20T11:40:20.565Z,1003.8
2023-04-20T11:41:21.815Z,1003.8
2023-04-20T11:42:23.002Z,1003.8
2023-04-20T11:43:24.175Z,1003.8
2023-04-20T11:44:25.144Z,1003.8
2023-04-20T11:45:26.637Z,1003.8
2023-04-20T11:46:28.104Z,1003.7
2023-04-20T11:47:29.454Z,1003.7
2023-04-20T11:48:30.548Z,1003.7
2023-04-20T11:49:31.722Z,1003.7
2023-04-20T11:50:32.887Z,1003.7
2023-04-20T11:51:33.861Z,1003.7
2023-04-20T11:52:35.026Z,1003.7
2023-04-20T11:53:36.187Z,1003.7
2023-04-20T11:54:37.165Z,1003.7
2023-04-20T11:55:38.331Z,1003.6
2023-04-20T11:56:39.506Z,1003.6
2023-04-20T11:57:40.470Z,1003.6
2023-04-20T11:58:41.719Z,1003.6
2023-04-20T11:59:43.074Z,1003.6
2023-04-20T12:00:44.216Z,1003.6
2023-04-20T12:01:45.389Z,1003.6
2023-04-20T12:02:46.542Z,1003.6
2023-04-20T12:03:48.738Z,1003.6
2023-04-20T12:04:50.436Z,1003.6
2023-04-20T12:05:51.795Z,1003.6
2023-04-20T12:06:53.101Z,1003.6
2023-04-20T12:07:54.082Z,1003.6
2023-04-20T12:08:55.248Z,1003.6
2023-04-20T12:09:56.408Z,1003.6
2023-04-20T12:10:59.067Z,1003.5
2023-04-20T12:12:00.252Z,1003.5
2023-04-20T12:13:01.409Z,1003.6
2023-04-20T12:14:02.575Z,1003.6
2023-04-20T12:15:03.837Z,1003.6
2023-04-20T12:16:05.159Z,1003.6
2023-04-20T12:17:06.400Z,1003.6
2023-04-20T12:18:07.785Z,1003.6
2023-04-20T12:19:09.189Z,1003.6
2023-04-20T12:20:10.417Z,1003.6
2023-04-20T12:21:11.576Z,1003.6
2023-04-20T12:22:12.747Z,1003.5
2023-04-20T12:23:13.713Z,1003.5
2023-04-20T12:24:14.729Z,1003.5
2023-04-20T12:25:15.899Z,1003.5
2023-04-20T12:26:17.065Z,1003.4
2023-04-20T12:27:18.231Z,1003.4
2023-04-20T12:28:19.399Z,1003.4
2023-04-20T12:29:21.110Z,1003.4
2023-04-20T12:30:22.268Z,1003.4
2023-04-20T12:31:26.537Z,1003.3
2023-04-20T12:32:28.015Z,1003.3
2023-04-20T12:33:29.172Z,1003.3
2023-04-20T12:34:31.189Z,1003.3
2023-04-20T12:35:32.336Z,1003.3
2023-04-20T12:36:33.500Z,1003.3
2023-04-20T12:37:34.665Z,1003.3
2023-04-20T12:38:35.633Z,1003.3
2023-04-20T12:39:36.804Z,1003.3
2023-04-20T12:40:38.094Z,1003.3
2023-04-20T12:41:39.309Z,1003.2
2023-04-20T12:42:40.475Z,1003.2
2023-04-20T12:43:41.643Z,1003.3
2023-04-20T12:44:42.810Z,1003.2
2023-04-20T12:45:43.812Z,1003.2
2023-04-20T12:46:45.125Z,1003.2
2023-04-20T12:47:46.579Z,1003.3
2023-04-20T12:48:47.742Z,1003.3
2023-04-20T12:49:48.905Z,1003.3